Time;durP1;ratioP1;P1;durP2;ratioP2;P2;SDS_P1;SDS_P2;PMS_P1;PMS_P2;Temp;Humidity;BMP_temperature;BMP_pressure;BME280_temperature;BME280_humidity;BME280_pressure;Samples;Min_cycle;Max_cycle;Signal;HPM_P1;HPM_P2
2022/06/06 00:00:41;;;;;;;1999.90;999.90;;;;;;;18.80;73.30;95526.03;4993594;28;20171;-69
2022/06/06 00:03:06;;;;;;;1999.90;999.90;;;;;;;18.55;73.15;95512.66;5012316;28;20092;-69
2022/06/06 00:05:32;;;;;;;1999.90;999.90;;;;;;;18.68;73.65;95532.25;5012218;28;20471;-68
2022/06/06 00:07:58;;;;;;;1999.90;999.90;;;;;;;18.15;74.75;95510.81;5011817;28;20036;-68
2022/06/06 00:10:24;;;;;;;1999.90;999.90;;;;;;;17.43;75.50;95426.50;5011143;28;20030;-69
2022/06/06 00:12:49;;;;;;;1999.90;999.90;;;;;;;17.99;75.74;95522.66;4992609;28;20076;-71
2022/06/06 00:15:15;;;;;;;1999.90;999.90;;;;;;;17.82;75.15;95484.16;4992796;28;20375;-68
2022/06/06 00:17:41;;;;;;;1999.90;999.90;;;;;;;17.76;76.05;95511.63;5008028;28;20080;-68
2022/06/06 00:20:07;;;;;;;1999.90;999.90;;;;;;;17.72;76.35;95486.50;5011946;28;20746;-68
2022/06/06 00:22:32;;;;;;;1999.90;999.90;;;;;;;17.98;75.51;95484.22;5009660;28;20386;-68
2022/06/06 00:24:57;;;;;;;1999.90;999.90;;;;;;;18.15;75.43;95521.59;5011964;28;20025;-68
2022/06/06 00:27:23;;;;;;;1999.90;999.90;;;;;;;17.52;76.56;95477.47;5011928;28;20038;-68
2022/06/06 00:29:49;;;;;;;1999.90;999.90;;;;;;;17.81;76.34;95496.06;5011117;28;20034;-68
2022/06/06 00:35:03;;;;;;;1999.90;999.90;;;;;;;17.82;75.81;95519.13;5011797;28;20056;-68
2022/06/06 00:37:31;;;;;;;1999.90;999.90;;;;;;;18.03;76.30;95523.56;5011596;28;20140;-68
2022/06/06 00:39:57;;;;;;;1999.90;999.90;;;;;;;18.18;75.20;95520.91;5011273;28;20025;-68
2022/06/06 00:42:25;;;;;;;1999.90;999.90;;;;;;;18.19;75.46;95533.25;4996756;28;20150;-70
2022/06/06 00:45:16;;;;;;;1999.90;999.90;;;;;;;17.78;76.08;95547.06;4991380;28;20041;-68
2022/06/06 00:47:44;;;;;;;1999.90;999.90;;;;;;;17.83;75.61;95552.22;4998430;28;20038;-68
2022/06/06 00:50:14;;;;;;;1999.90;999.90;;;;;;;17.97;75.54;95524.94;5010795;28;20402;-67
2022/06/06 00:52:43;;;;;;;1999.90;999.90;;;;;;;17.63;75.54;95518.91;5008740;28;20441;-68
2022/06/06 00:55:14;;;;;;;1999.90;999.90;;;;;;;18.08;75.49;95542.94;5011274;28;20050;-68
2022/06/06 00:57:46;;;;;;;1999.90;999.90;;;;;;;17.96;75.48;95548.34;5011330;28;20022;-68
2022/06/06 01:00:15;;;;;;;1999.90;999.90;;;;;;;18.09;75.53;95544.50;5010709;28;20033;-70
2022/06/06 01:02:45;;;;;;;1999.90;999.90;;;;;;;17.93;74.86;95520.22;5005126;28;20044;-68
2022/06/06 01:05:11;;;;;;;1999.90;999.90;;;;;;;18.02;75.02;95522.00;5009862;28;20450;-70
2022/06/06 01:07:36;;;;;;;1999.90;999.90;;;;;;;18.05;74.79;95507.84;5011277;28;20064;-68
2022/06/06 01:10:03;;;;;;;1999.90;999.90;;;;;;;18.32;74.40;95549.34;5009274;28;20034;-67
2022/06/06 01:12:31;;;;;;;1999.90;999.90;;;;;;;18.14;73.98;95511.19;5010413;28;20048;-70
2022/06/06 01:15:02;;;;;;;1999.90;999.90;;;;;;;18.22;74.26;95523.72;5011120;28;20108;-70
2022/06/06 01:17:36;;;;;;;1999.90;999.90;;;;;;;18.41;74.28;95550.78;5008624;28;20028;-69
2022/06/06 01:20:32;;;;;;;1999.90;999.90;;;;;;;18.41;74.05;95547.28;5005680;28;20058;-69
2022/06/06 01:23:06;;;;;;;1999.90;999.90;;;;;;;18.36;73.41;95547.53;5010966;28;20160;-69
2022/06/06 01:26:08;;;;;;;1999.90;999.90;;;;;;;18.36;73.97;95552.94;5009759;28;20026;-69
2022/06/06 01:28:38;;;;;;;1999.90;999.90;;;;;;;18.35;74.11;95549.44;5010494;28;20024;-69
2022/06/06 01:31:14;;;;;;;1999.90;999.90;;;;;;;18.23;73.91;95530.66;5010708;28;20479;-69
2022/06/06 01:33:49;;;;;;;1999.90;999.90;;;;;;;18.29;73.81;95550.84;5009310;28;20033;-69
2022/06/06 01:36:14;;;;;;;1999.90;999.90;;;;;;;18.12;73.51;95514.22;5010633;28;20028;-69
2022/06/06 01:38:40;;;;;;;1999.90;999.90;;;;;;;18.02;73.57;95506.63;5010240;28;20026;-69
2022/06/06 01:41:11;;;;;;;1999.90;999.90;;;;;;;18.10;73.76;95518.38;5009316;28;20720;-69
2022/06/06 01:43:44;;;;;;;1999.90;999.90;;;;;;;18.27;73.52;95549.59;5007521;28;20030;-69
2022/06/06 01:46:15;;;;;;;1999.90;999.90;;;;;;;18.14;73.63;95536.19;5009096;28;20114;-69
2022/06/06 01:48:42;;;;;;;1999.90;999.90;;;;;;;18.09;73.56;95524.88;5008340;28;20048;-69
2022/06/06 01:51:14;;;;;;;1999.90;999.90;;;;;;;18.11;73.51;95536.84;5009149;28;20445;-68
2022/06/06 01:53:40;;;;;;;1999.90;999.90;;;;;;;18.13;73.83;95540.00;5009563;28;20029;-68
2022/06/06 01:56:12;;;;;;;1999.90;999.90;;;;;;;18.13;73.51;95536.53;5009481;28;20034;-67
2022/06/06 01:58:37;;;;;;;1999.90;999.90;;;;;;;17.89;73.43;95518.56;5010092;28;20026;-68
2022/06/06 02:01:03;;;;;;;1999.90;999.90;;;;;;;17.93;73.68;95531.00;5007546;28;20038;-67
2022/06/06 02:03:31;;;;;;;1999.90;999.90;;;;;;;17.95;73.47;95521.78;5009746;28;20030;-68
2022/06/06 02:05:57;;;;;;;1999.90;999.90;;;;;;;17.95;73.46;95529.84;5010226;28;20026;-67
2022/06/06 02:08:22;;;;;;;1999.90;999.90;;;;;;;17.83;73.50;95503.78;5009758;28;20038;-67
2022/06/06 02:10:48;;;;;;;1999.90;999.90;;;;;;;17.85;73.41;95515.75;5008709;28;20391;-68
2022/06/06 02:13:13;;;;;;;1999.90;999.90;;;;;;;17.91;73.27;95527.06;4999934;28;20480;-68
2022/06/06 02:15:39;;;;;;;1999.90;999.90;;;;;;;17.86;73.66;95522.72;4990598;28;20657;-68
2022/06/06 02:18:06;;;;;;;1999.90;999.90;;;;;;;17.55;73.35;95472.19;4994708;28;20029;-67
2022/06/06 02:20:32;;;;;;;1999.90;999.90;;;;;;;17.92;73.33;95537.50;5008616;28;20364;-67
2022/06/06 02:22:58;;;;;;;1999.90;999.90;;;;;;;17.41;73.28;95461.81;5010184;28;20018;-67
2022/06/06 02:25:24;;;;;;;1999.90;999.90;;;;;;;17.79;73.33;95535.16;5007671;28;20096;-68
2022/06/06 02:27:50;;;;;;;1999.90;999.90;;;;;;;17.62;73.47;95520.06;5009934;28;20022;-69
2022/06/06 02:30:27;;;;;;;1999.90;999.90;;;;;;;17.73;73.38;95537.31;5009585;28;20664;-67
2022/06/06 02:32:53;;;;;;;1999.90;999.90;;;;;;;17.60;73.39;95525.75;5009169;28;20042;-68
2022/06/06 02:35:24;;;;;;;1999.90;999.90;;;;;;;17.50;73.37;95506.59;5008763;28;20026;-68
2022/06/06 02:37:52;;;;;;;1999.90;999.90;;;;;;;17.66;73.35;95531.72;5009773;28;20029;-68
2022/06/06 02:40:20;;;;;;;1999.90;999.90;;;;;;;17.64;73.44;95542.78;5009548;28;20368;-67
2022/06/06 02:42:46;;;;;;;1999.90;999.90;;;;;;;17.62;73.39;95544.25;5008742;28;20034;-68
2022/06/06 02:45:15;;;;;;;1999.90;999.90;;;;;;;17.41;73.46;95520.19;5009378;28;20036;-68
2022/06/06 02:47:42;;;;;;;1999.90;999.90;;;;;;;17.28;73.57;95505.97;5009656;28;20080;-68
2022/06/06 02:50:08;;;;;;;1999.90;999.90;;;;;;;17.27;73.53;95511.69;5005915;28;20367;-68
2022/06/06 02:52:34;;;;;;;1999.90;999.90;;;;;;;17.30;73.65;95521.75;5009711;28;20040;-68
2022/06/06 02:55:01;;;;;;;1999.90;999.90;;;;;;;17.46;73.47;95546.06;5009240;28;20081;-68
2022/06/06 02:57:27;;;;;;;1999.90;999.90;;;;;;;17.61;73.23;95559.63;5010102;28;20076;-68
2022/06/06 02:59:57;;;;;;;1999.90;999.90;;;;;;;17.60;73.03;95565.31;5009273;28;20030;-68
2022/06/06 03:02:22;;;;;;;1999.90;999.90;;;;;;;17.56;72.96;95565.22;5010086;28;20092;-68
2022/06/06 03:04:48;;;;;;;1999.90;999.90;;;;;;;17.49;72.84;95561.53;5008239;28;20425;-68
2022/06/06 03:07:27;;;;;;;1999.90;999.90;;;;;;;17.37;73.16;95555.03;5009752;28;20478;-68
2022/06/06 03:10:08;;;;;;;1999.90;999.90;;;;;;;17.51;73.16;95572.75;5011514;28;20367;-68
2022/06/06 03:12:59;;;;;;;1999.90;999.90;;;;;;;17.50;73.09;95580.00;5002430;28;20034;-68
2022/06/06 03:15:41;;;;;;;1999.90;999.90;;;;;;;17.51;73.06;95576.22;4993862;28;20281;-68
2022/06/06 03:21:14;;;;;;;1999.90;999.90;;;;;;;17.49;73.19;95580.34;4993704;28;20044;-68
2022/06/06 03:24:03;;;;;;;1999.90;999.90;;;;;;;17.30;73.17;95564.75;4993557;28;20430;-68
2022/06/06 03:26:41;;;;;;;1999.90;999.90;;;;;;;17.33;73.10;95572.16;4992145;28;20030;-68
2022/06/06 03:29:13;;;;;;;1999.90;999.90;;;;;;;17.52;73.06;95591.22;5012416;28;20427;-68
2022/06/06 03:31:38;;;;;;;1999.90;999.90;;;;;;;17.45;73.00;95580.22;5029140;22;20069;-75
2022/06/06 03:34:22;;;;;;;1999.90;999.90;;;;;;;17.51;73.21;95594.25;5031247;28;20061;-76
2022/06/06 03:37:03;;;;;;;1999.90;999.90;;;;;;;17.51;73.27;95596.94;5031839;28;20102;-75
2022/06/06 03:39:45;;;;;;;1999.90;999.90;;;;;;;17.54;73.43;95594.34;5022552;28;20136;-75
2022/06/06 03:42:23;;;;;;;1999.90;999.90;;;;;;;17.57;73.34;95596.38;5011600;28;20481;-75
2022/06/06 03:44:53;;;;;;;1999.90;999.90;;;;;;;17.64;73.41;95588.50;5010981;28;20120;-74
2022/06/06 03:47:44;;;;;;;1999.90;999.90;;;;;;;17.96;73.23;95596.00;5012941;28;20022;-75
2022/06/06 03:50:19;;;;;;;1999.90;999.90;;;;;;;18.17;73.44;95585.88;4997505;28;20077;-75
2022/06/06 03:52:53;;;;;;;1999.90;999.90;;;;;;;18.36;73.43;95599.50;5011829;28;20081;-75
2022/06/06 03:56:00;;;;;;;1999.90;999.90;;;;;;;18.56;73.25;95600.44;5011719;28;20029;-74
2022/06/06 03:58:30;;;;;;;1999.90;999.90;;;;;;;18.83;72.49;95590.78;5010577;28;20040;-75
2022/06/06 04:00:59;;;;;;;1999.90;999.90;;;;;;;19.16;71.94;95605.88;5011808;28;20030;-75
2022/06/06 04:03:26;;;;;;;1999.90;999.90;;;;;;;19.22;71.90;95589.09;5012695;28;20499;-75
2022/06/06 04:05:51;;;;;;;1999.90;999.90;;;;;;;19.37;71.74;95606.41;5010661;28;20041;-75
2022/06/06 04:08:17;;;;;;;1999.90;999.90;;;;;;;19.48;71.84;95612.81;5010682;28;20034;-75
2022/06/06 04:10:52;;;;;;;1999.90;999.90;;;;;;;19.53;71.97;95602.91;5011961;28;20511;-75
2022/06/06 04:13:24;;;;;;;1999.90;999.90;;;;;;;19.67;71.66;95614.84;5011231;28;20040;-75
2022/06/06 04:15:50;;;;;;;1999.90;999.90;;;;;;;19.70;71.24;95607.97;5011304;28;20026;-74
2022/06/06 04:18:34;;;;;;;1999.90;999.90;;;;;;;19.82;71.62;95610.56;5009996;28;20108;-75
2022/06/06 04:21:08;;;;;;;1999.90;999.90;;;;;;;19.95;71.54;95617.41;5009770;28;20033;-75
2022/06/06 04:23:44;;;;;;;1999.90;999.90;;;;;;;20.05;70.99;95607.97;5012261;28;20076;-75
2022/06/06 04:26:39;;;;;;;1999.90;999.90;;;;;;;19.87;70.78;95596.78;5011002;28;20503;-75
2022/06/06 04:29:19;;;;;;;1999.90;999.90;;;;;;;19.91;70.69;95608.47;5010327;28;20033;-75
2022/06/06 04:32:16;;;;;;;1999.90;999.90;;;;;;;20.03;70.63;95614.88;5010682;28;20073;-75
2022/06/06 04:35:20;;;;;;;1999.90;999.90;;;;;;;20.37;70.62;95602.44;5007648;28;20041;-75
2022/06/06 04:37:48;;;;;;;1999.90;999.90;;;;;;;20.68;70.30;95607.75;5006427;28;20062;-75
2022/06/06 04:40:52;;;;;;;1999.90;999.90;;;;;;;20.99;70.00;95590.56;4990667;28;20033;-75
2022/06/06 04:43:33;;;;;;;1999.90;999.90;;;;;;;21.40;68.71;95592.81;4973271;28;20046;-75
2022/06/06 04:46:10;;;;;;;1999.90;999.90;;;;;;;21.65;68.21;95604.03;4992666;28;20042;-76
2022/06/06 04:48:36;;;;;;;1999.90;999.90;;;;;;;21.76;68.27;95615.81;4990809;28;20018;-75
2022/06/06 04:51:04;;;;;;;1999.90;999.90;;;;;;;21.74;68.26;95602.63;5009382;28;20091;-75
2022/06/06 04:53:32;;;;;;;1999.90;999.90;;;;;;;21.61;68.32;95608.63;5010950;28;20506;-75
2022/06/06 04:55:59;;;;;;;1999.90;999.90;;;;;;;21.36;68.33;95605.50;5012086;28;20394;-75
2022/06/06 04:58:29;;;;;;;1999.90;999.90;;;;;;;21.26;68.16;95609.56;5011383;28;20068;-75
2022/06/06 05:00:55;;;;;;;1999.90;999.90;;;;;;;21.01;68.79;95601.00;5009399;28;20088;-76
2022/06/06 05:03:21;;;;;;;1999.90;999.90;;;;;;;21.00;69.09;95615.69;5010366;28;20076;-74
2022/06/06 05:06:03;;;;;;;1999.90;999.90;;;;;;;21.08;68.63;95622.78;5010325;28;20380;-75
2022/06/06 05:08:59;;;;;;;1999.90;999.90;;;;;;;21.22;68.66;95630.38;5011185;28;20030;-75
2022/06/06 05:11:43;;;;;;;1999.90;999.90;;;;;;;21.40;69.52;95623.38;5008848;28;20034;-75
2022/06/06 05:14:18;;;;;;;1999.90;999.90;;;;;;;21.69;69.54;95632.72;5009632;28;20030;-74
2022/06/06 05:17:16;;;;;;;1999.90;999.90;;;;;;;21.93;69.25;95633.47;5010340;28;20022;-75
2022/06/06 05:20:20;;;;;;;1999.90;999.90;;;;;;;22.18;68.89;95623.03;5008764;28;20556;-74
2022/06/06 05:23:11;;;;;;;1999.90;999.90;;;;;;;22.40;68.65;95627.56;5011052;28;20044;-76
2022/06/06 05:25:39;;;;;;;1999.90;999.90;;;;;;;22.73;67.81;95626.03;5010053;28;20471;-75
2022/06/06 05:28:23;;;;;;;1999.90;999.90;;;;;;;23.04;67.03;95633.00;5009150;28;20080;-75
2022/06/06 05:30:56;;;;;;;1999.90;999.90;;;;;;;23.18;67.26;95635.03;5009914;28;20030;-75
2022/06/06 05:33:50;;;;;;;1999.90;999.90;;;;;;;23.22;66.32;95628.50;5010006;28;20387;-75
2022/06/06 05:36:28;;;;;;;1999.90;999.90;;;;;;;23.27;66.28;95640.97;5010813;28;20029;-74
2022/06/06 05:39:05;;;;;;;1999.90;999.90;;;;;;;23.22;66.67;95636.66;5009199;28;20026;-75
2022/06/06 05:41:55;;;;;;;1999.90;999.90;;;;;;;23.17;66.43;95631.56;5009292;28;20053;-75
2022/06/06 05:44:53;;;;;;;1999.90;999.90;;;;;;;23.21;65.88;95632.38;5009535;28;20048;-75
2022/06/06 05:47:38;;;;;;;1999.90;999.90;;;;;;;23.18;66.14;95619.53;5009837;28;20036;-77
2022/06/06 05:50:03;;;;;;;1999.90;999.90;;;;;;;23.23;66.06;95629.28;5009104;28;20038;-72
2022/06/06 05:52:47;;;;;;;1999.90;999.90;;;;;;;23.25;66.87;95638.63;5009440;28;20037;-72
2022/06/06 05:55:40;;;;;;;1999.90;999.90;;;;;;;23.55;67.04;95632.31;5011120;28;20026;-72
2022/06/06 05:58:40;;;;;;;1999.90;999.90;;;;;;;23.74;66.42;95632.06;5009743;28;20072;-76
2022/06/06 06:01:23;;;;;;;1999.90;999.90;;;;;;;23.90;64.55;95626.38;5011038;28;20113;-75
2022/06/06 06:04:07;;;;;;;1999.90;999.90;;;;;;;24.24;65.49;95623.47;5009414;28;20037;-75
2022/06/06 06:06:51;;;;;;;1999.90;999.90;;;;;;;24.47;65.45;95624.03;5009066;28;20069;-75
2022/06/06 06:09:55;;;;;;;1999.90;999.90;;;;;;;24.52;64.40;95620.94;5009073;28;20026;-75
2022/06/06 06:12:33;;;;;;;1999.90;999.90;;;;;;;24.63;64.56;95631.88;4993767;28;20041;-72
2022/06/06 06:15:29;;;;;;;1999.90;999.90;;;;;;;24.63;64.28;95619.03;5009313;28;20018;-73
2022/06/06 06:17:55;;;;;;;1999.90;999.90;;;;;;;24.71;63.65;95610.91;5010232;28;20053;-73
2022/06/06 06:20:24;;;;;;;1999.90;999.90;;;;;;;24.77;63.60;95623.75;5009177;28;20026;-73
2022/06/06 06:22:57;;;;;;;1999.90;999.90;;;;;;;24.87;61.77;95636.59;5010183;28;20363;-73
2022/06/06 06:25:25;;;;;;;1999.90;999.90;;;;;;;24.64;59.54;95622.53;5008982;28;20022;-73
2022/06/06 06:27:56;;;;;;;1999.90;999.90;;;;;;;24.93;62.33;95630.78;5008580;28;20030;-73
2022/06/06 06:30:21;;;;;;;1999.90;999.90;;;;;;;24.75;60.30;95614.41;5009393;28;20121;-73
2022/06/06 06:33:02;;;;;;;1999.90;999.90;;;;;;;24.87;60.56;95630.38;5010086;28;20068;-74
2022/06/06 06:35:51;;;;;;;1999.90;999.90;;;;;;;24.94;61.73;95614.09;5009157;28;20041;-73
2022/06/06 06:38:48;;;;;;;1999.90;999.90;;;;;;;25.18;60.22;95639.81;5009752;28;20481;-73
2022/06/06 06:41:45;;;;;;;1999.90;999.90;;;;;;;25.30;60.16;95638.69;5009620;28;20029;-82
2022/06/06 06:44:30;;;;;;;1999.90;999.90;;;;;;;25.57;62.31;95620.03;5014182;28;20029;-82
2022/06/06 06:47:01;;;;;;;1999.90;999.90;;;;;;;25.69;60.29;95611.47;5011795;28;20067;-82
2022/06/06 06:49:44;;;;;;;1999.90;999.90;;;;;;;26.04;60.19;95631.72;5010622;28;20034;-83
2022/06/06 06:52:19;;;;;;;1999.90;999.90;;;;;;;26.25;60.97;95626.22;5014243;28;20030;-78
2022/06/06 06:54:53;;;;;;;1999.90;999.90;;;;;;;26.29;59.50;95632.44;5011516;28;20029;-74
2022/06/06 06:57:37;;;;;;;1999.90;999.90;;;;;;;26.36;58.77;95615.28;5013945;28;20041;-73
2022/06/06 07:00:06;;;;;;;1999.90;999.90;;;;;;;26.54;59.18;95639.81;5012270;28;20026;-74
2022/06/06 07:09:37;;;;;;;1999.90;999.90;;;;;;;26.82;57.75;95609.69;5013074;28;20103;-76
2022/06/06 07:12:38;;;;;;;1999.90;999.90;;;;;;;27.12;57.95;95638.41;5010818;28;20029;-73
2022/06/06 07:15:46;;;;;;;1999.90;999.90;;;;;;;27.02;56.22;95631.78;4980070;28;20088;-71
2022/06/06 07:18:16;;;;;;;1999.90;999.90;;;;;;;27.07;58.24;95623.22;5004581;28;20466;-71
2022/06/06 07:20:45;;;;;;;1999.90;999.90;;;;;;;27.28;58.60;95630.53;5012511;28;20101;-72
2022/06/06 07:23:13;;;;;;;1999.90;999.90;;;;;;;26.00;54.27;95620.03;5013326;28;20022;-68
2022/06/06 07:25:43;;;;;;;1999.90;999.90;;;;;;;24.00;49.48;95641.97;5012183;28;20018;-70
2022/06/06 07:28:11;;;;;;;1999.90;999.90;;;;;;;24.44;57.39;95645.75;5005452;28;20034;-69
2022/06/06 07:30:58;;;;;;;1999.90;999.90;;;;;;;24.70;50.97;95642.00;5013131;28;20080;-71
2022/06/06 07:33:48;;;;;;;1999.90;999.90;;;;;;;24.29;50.71;95642.16;5013049;28;20065;-71
2022/06/06 07:36:29;;;;;;;1999.90;999.90;;;;;;;24.69;50.21;95643.94;5011620;28;20032;-72
2022/06/06 07:39:20;;;;;;;1999.90;999.90;;;;;;;24.98;57.75;95638.56;5004596;28;20026;-71
2022/06/06 07:41:56;;;;;;;1999.90;999.90;;;;;;;24.70;56.21;95648.22;5006823;28;20140;-72
2022/06/06 07:45:06;;;;;;;1999.90;999.90;;;;;;;25.72;58.67;95632.50;5017267;28;20406;-68
2022/06/06 07:47:58;;;;;;;1999.90;999.90;;;;;;;26.47;58.47;95639.84;5016671;28;20021;-68
2022/06/06 07:50:29;;;;;;;1999.90;999.90;;;;;;;26.96;56.72;95638.84;5007264;28;20035;-69
2022/06/06 07:53:07;;;;;;;1999.90;999.90;;;;;;;26.14;53.61;95637.16;4992101;28;20028;-69
2022/06/06 07:55:44;;;;;;;1999.90;999.90;;;;;;;26.31;54.90;95634.75;4994393;28;20026;-71
2022/06/06 07:58:09;;;;;;;1999.90;999.90;;;;;;;25.37;48.57;95639.47;5009824;28;20419;-70
2022/06/06 08:00:36;;;;;;;1999.90;999.90;;;;;;;25.03;53.38;95638.19;5010969;28;20041;-70
2022/06/06 08:03:11;;;;;;;1999.90;999.90;;;;;;;26.15;55.62;95638.69;5012692;28;20033;-74
2022/06/06 08:05:39;;;;;;;1999.90;999.90;;;;;;;26.87;56.95;95633.84;5010700;28;20030;-75
2022/06/06 08:08:19;;;;;;;1999.90;999.90;;;;;;;27.42;55.57;95635.88;5010790;28;20030;-74
2022/06/06 08:10:47;;;;;;;1999.90;999.90;;;;;;;27.84;54.40;95631.28;4992579;28;20030;-73
2022/06/06 08:13:25;;;;;;;1999.90;999.90;;;;;;;28.18;52.64;95625.88;4991438;28;20023;-74
2022/06/06 08:16:15;;;;;;;1999.90;999.90;;;;;;;26.98;46.49;95628.31;4991408;28;20030;-75
2022/06/06 08:18:59;;;;;;;1999.90;999.90;;;;;;;27.00;51.51;95634.16;4993838;28;20530;-75
2022/06/06 08:21:43;;;;;;;1999.90;999.90;;;;;;;27.59;53.43;95619.75;5011941;28;20116;-73
2022/06/06 08:24:15;;;;;;;1999.90;999.90;;;;;;;28.10;49.26;95631.81;5007528;28;20033;-71
2022/06/06 08:26:43;;;;;;;1999.90;999.90;;;;;;;28.44;53.09;95624.47;5010096;28;20026;-72
2022/06/06 08:29:09;;;;;;;1999.90;999.90;;;;;;;28.69;48.94;95628.88;5007158;28;20410;-69
2022/06/06 08:31:35;;;;;;;1999.90;999.90;;;;;;;28.66;49.46;95630.50;5004944;28;20030;-70
2022/06/06 08:34:01;;;;;;;1999.90;999.90;;;;;;;28.19;47.42;95632.91;5009992;28;20029;-73
2022/06/06 08:36:26;;;;;;;1999.90;999.90;;;;;;;28.41;48.29;95628.03;5011825;28;20429;-70
2022/06/06 08:39:30;;;;;;;1999.90;999.90;;;;;;;28.61;50.22;95632.88;5011167;28;20510;-70
2022/06/06 08:41:56;;;;;;;1999.90;999.90;;;;;;;28.96;50.24;95627.00;5010922;28;20355;-71
2022/06/06 08:44:27;;;;;;;1999.90;999.90;;;;;;;28.97;38.03;95631.31;5006411;28;20133;-71
2022/06/06 08:47:06;;;;;;;1999.90;999.90;;;;;;;29.43;48.05;95629.88;5003284;28;20383;-72
2022/06/06 08:53:06;;;;;;;1999.90;999.90;;;;;;;28.47;41.17;95629.13;4997561;28;20033;-71
2022/06/06 08:56:07;;;;;;;1999.90;999.90;;;;;;;28.84;45.08;95632.22;5011261;28;20044;-71
2022/06/06 08:59:19;;;;;;;1999.90;999.90;;;;;;;28.10;39.13;95616.22;5010695;28;20061;-71
2022/06/06 09:01:58;;;;;;;1999.90;999.90;;;;;;;28.83;47.18;95616.97;5001094;28;20041;-71
2022/06/06 09:04:45;;;;;;;1999.90;999.90;;;;;;;29.31;48.94;95626.91;5009445;28;20451;-72
2022/06/06 09:07:36;;;;;;;1999.90;999.90;;;;;;;29.62;48.49;95624.91;5009700;28;20046;-71
2022/06/06 09:10:22;;;;;;;;;;;;;;;29.70;47.21;95629.88;4999169;28;20064;-71
2022/06/06 09:13:18;;;;;;;1999.90;999.90;;;;;;;30.04;47.07;95621.44;5011255;28;19917;-71
2022/06/06 09:16:11;;;;;;;1999.90;999.90;;;;;;;30.11;44.86;95617.03;5011074;28;20057;-71
2022/06/06 09:18:52;;;;;;;1999.90;999.90;;;;;;;30.01;42.93;95607.81;5010011;28;20072;-71
2022/06/06 09:22:01;;;;;;;1999.90;999.90;;;;;;;29.80;45.79;95592.50;5010091;28;20071;-70
2022/06/06 09:24:42;;;;;;;1999.90;999.90;;;;;;;29.27;47.02;95603.06;5010593;28;21772;-70
2022/06/06 09:27:15;;;;;;;1999.90;999.90;;;;;;;28.85;45.87;95598.94;5009052;28;20053;-70
2022/06/06 09:30:02;;;;;;;1999.90;999.90;;;;;;;28.32;46.28;95603.09;5008877;28;20501;-70
2022/06/06 09:33:05;;;;;;;1999.90;999.90;;;;;;;27.39;40.63;95605.84;5009112;28;20037;-70
2022/06/06 09:35:52;;;;;;;1999.90;999.90;;;;;;;26.54;47.18;95602.38;5024048;28;20489;-69
2022/06/06 09:38:39;;;;;;;1999.90;999.90;;;;;;;25.92;43.12;95600.97;5028944;28;20030;-71
2022/06/06 09:41:33;;;;;;;1999.90;999.90;;;;;;;25.82;44.42;95596.31;5029201;28;20037;-69
2022/06/06 09:44:04;;;;;;;1999.90;999.90;;;;;;;25.41;47.23;95604.84;5030338;28;20037;-70
2022/06/06 09:46:39;;;;;;;;;;;;;;;25.65;49.81;95597.88;5030882;28;20029;-69
2022/06/06 09:49:28;;;;;;;1999.90;999.90;;;;;;;26.17;50.50;95600.16;5029975;28;20610;-72
2022/06/06 09:52:22;;;;;;;1999.90;999.90;;;;;;;26.61;52.87;95594.16;5030085;28;20033;-73
2022/06/06 10:01:21;;;;;;;1999.90;999.90;;;;;;;27.06;47.50;95594.31;5029899;28;20079;-73
2022/06/06 10:04:06;;;;;;;1999.90;999.90;;;;;;;26.14;42.74;95595.47;5025155;28;20093;-72
2022/06/06 10:06:53;;;;;;;1999.90;999.90;;;;;;;26.42;46.05;95589.19;5028580;28;20038;-71
2022/06/06 10:09:42;;;;;;;1999.90;999.90;;;;;;;26.65;42.74;95570.38;5029547;28;20075;-72
2022/06/06 10:12:29;;;;;;;1999.90;999.90;;;;;;;25.04;47.73;95597.00;5028454;28;20116;-72
2022/06/06 10:15:49;;;;;;;1999.90;999.90;;;;;;;25.65;45.57;95580.75;5029780;28;20025;-73
2022/06/06 10:19:01;;;;;;;1999.90;999.90;;;;;;;25.72;44.33;95579.94;5004256;28;20038;-72
2022/06/06 10:21:27;;;;;;;;;;;;;;;27.07;48.43;95576.78;5029098;28;20470;-72
2022/06/06 10:23:59;;;;;;;1999.90;999.90;;;;;;;27.65;49.04;95560.75;5029847;28;20009;-73
2022/06/06 10:27:02;;;;;;;1999.90;999.90;;;;;;;26.47;43.39;95564.25;5028196;28;20295;-72
2022/06/06 10:32:51;;;;;;;1999.90;999.90;;;;;;;27.50;45.72;95562.06;5029598;28;20055;-72
2022/06/06 10:35:36;;;;;;;1999.90;999.90;;;;;;;27.46;44.86;95557.41;5028242;28;20040;-72
2022/06/06 10:38:17;;;;;;;1999.90;999.90;;;;;;;27.02;43.34;95538.19;5026658;28;20845;-74
2022/06/06 10:40:48;;;;;;;1999.90;999.90;;;;;;;26.19;42.11;95565.06;5027432;28;20029;-72
2022/06/06 10:43:38;;;;;;;1999.90;999.90;;;;;;;26.51;44.27;95566.94;5027548;28;20299;-72
2022/06/06 10:46:24;;;;;;;1999.90;999.90;;;;;;;25.91;43.24;95566.72;5027147;28;20105;-71
2022/06/06 10:49:14;;;;;;;1999.90;999.90;;;;;;;27.39;43.29;95562.94;5026746;28;20108;-73
2022/06/06 10:51:57;;;;;;;1999.90;999.90;;;;;;;27.62;42.81;95556.88;5028814;28;20030;-73
2022/06/06 10:54:54;;;;;;;1999.90;999.90;;;;;;;26.88;41.54;95550.00;5029344;28;20026;-72
2022/06/06 10:57:30;;;;;;;1999.90;999.90;;;;;;;28.51;42.41;95530.59;5029218;28;20036;-72
2022/06/06 11:00:13;;;;;;;1999.90;999.90;;;;;;;28.93;37.07;95529.22;5027684;28;20083;-73
2022/06/06 11:03:03;;;;;;;1999.90;999.90;;;;;;;28.28;38.58;95544.91;5028079;28;20068;-73
2022/06/06 11:05:44;;;;;;;1999.90;999.90;;;;;;;28.00;38.71;95540.53;5029547;28;20482;-72
2022/06/06 11:08:31;;;;;;;1999.90;999.90;;;;;;;28.04;39.02;95546.72;5027458;28;20072;-72
2022/06/06 11:11:15;;;;;;;1999.90;999.90;;;;;;;27.80;38.87;95550.50;5015984;28;20132;-73
2022/06/06 11:13:59;;;;;;;1999.90;999.90;;;;;;;27.43;40.17;95535.56;5009709;28;20410;-72
2022/06/06 11:17:02;;;;;;;1999.90;999.90;;;;;;;28.19;40.56;95541.88;5008550;28;20364;-70
2022/06/06 11:19:46;;;;;;;1999.90;999.90;;;;;;;28.18;40.86;95554.00;5009693;28;20463;-70
2022/06/06 11:22:31;;;;;;;1999.90;999.90;;;;;;;27.20;40.84;95536.16;5010171;28;20034;-72
2022/06/06 11:25:15;;;;;;;1999.90;999.90;;;;;;;26.57;40.52;95529.91;5009434;28;20029;-71
2022/06/06 11:27:43;;;;;;;1999.90;999.90;;;;;;;26.30;42.92;95530.34;5027551;28;20029;-72
2022/06/06 11:30:41;;;;;;;1999.90;999.90;;;;;;;25.72;42.67;95526.22;5031511;28;20481;-72
2022/06/06 11:33:45;;;;;;;1999.90;999.90;;;;;;;25.98;42.38;95532.44;5033232;28;20029;-71
2022/06/06 11:36:13;;;;;;;1999.90;999.90;;;;;;;25.76;43.68;95534.44;5033233;28;20022;-70
2022/06/06 11:39:04;;;;;;;1999.90;999.90;;;;;;;24.36;49.97;95545.13;5031622;28;20025;-71
2022/06/06 11:41:48;;;;;;;1999.90;999.90;;;;;;;21.85;60.62;95542.41;5026908;28;20030;-67
2022/06/06 11:44:32;;;;;;;1999.90;999.90;;;;;;;21.40;66.28;95550.31;5031388;28;20033;-67
2022/06/06 11:47:34;;;;;;;1999.90;999.90;;;;;;;22.17;67.66;95554.50;5032916;28;20064;-67
2022/06/06 11:50:28;;;;;;;1999.90;999.90;;;;;;;22.31;68.08;95545.75;5030900;28;20033;-66
2022/06/06 11:53:26;;;;;;;1999.90;999.90;;;;;;;22.51;65.02;95540.94;5031286;28;20028;-66
2022/06/06 11:56:09;;;;;;;1999.90;999.90;;;;;;;21.59;69.43;95535.88;5025952;28;20611;-68
2022/06/06 11:59:05;;;;;;;1999.90;999.90;;;;;;;21.45;66.51;95538.41;5030546;28;20042;-68
2022/06/06 12:01:49;;;;;;;1999.90;999.90;;;;;;;21.86;64.19;95515.00;5030980;28;20029;-67
2022/06/06 12:04:42;;;;;;;1999.90;999.90;;;;;;;21.92;65.74;95527.06;5032056;28;20024;-67
2022/06/06 12:07:43;;;;;;;1999.90;999.90;;;;;;;22.43;62.69;95523.06;5030960;28;20026;-70
2022/06/06 12:10:18;;;;;;;1999.90;999.90;;;;;;;22.17;63.12;95524.69;5028835;28;20107;-71